Flight Track Log - Related Links

Times and Time Zones

All times are in EST time to prevent confusion due to time zone crossing. See the SWA3053 flight status page for this flight to view local times or setup timezone preferences in your user account.

Time Position Orientation Groundspeed Altitude Reporting Facility
EST Latitude Longitude Course Direction KTS MPH feet Rate Location/Type
Sat 12:55:26 AM 32.7725 -117.2761 303° West 191 220 3,900  Level Los Angeles Center
Sat 12:56:28 AM 32.8089 -117.3414 304° West 222 255 6,400 2,927 Climbing Los Angeles Center
Sat 12:57:29 AM 32.8533 -117.4150 306° West 265 305 9,900 3,049 Climbing Los Angeles Center
Sat 12:58:30 AM 32.9122 -117.4897 313° West 294 338 12,600 3,049 Climbing Los Angeles Center
Sat 12:59:31 AM 32.9928 -117.5908 314° West 330 380 16,100 3,220 Climbing Los Angeles Center
Sat 01:00:33 AM 33.0650 -117.6842 313° West 360 414 19,200 3,024 Climbing Los Angeles Center
Sat 01:01:34 AM 33.1381 -117.7808 312° West 379 436 22,300 2,852 Climbing Los Angeles Center
Sat 01:02:35 AM 33.2131 -117.8803 312° West 392 451 25,000 2,410 Climbing Los Angeles Center
Sat 01:03:36 AM 33.2869 -117.9856 310° West 402 463 27,200 2,049 Climbing Los Angeles Center
Sat 01:04:38 AM 33.3622 -118.0947 310° West 414 476 29,200 1,951 Climbing Los Angeles Center
Sat 01:05:39 AM 33.4400 -118.2064 310° West 425 489 31,200 2,016 Climbing Los Angeles Center
Sat 01:06:40 AM 33.5175 -118.3192 310° West 434 499 33,300 1,756 Climbing Los Angeles Center
Sat 01:07:42 AM 33.5961 -118.4336 310° West 436 502 34,800 1,756 Climbing Los Angeles Center
Sat 01:08:43 AM 33.6769 -118.5489 310° West 442 509 36,900 1,574 Climbing Los Angeles Center
Sat 01:09:44 AM 33.7528 -118.6581 310° West 421 484 38,000 541 Climbing Los Angeles Center
Sat 01:10:45 AM 33.8269 -118.7656 310° West 416 479 38,000  Level Los Angeles Center
Sat 01:11:47 AM 33.8997 -118.8725 309° West 414 476 38,000  Level Los Angeles Center
Sat 01:12:48 AM 33.9744 -118.9822 309° West 421 484 38,000  Level Los Angeles Center
Sat 01:13:49 AM 34.0639 -119.1122 310° West 421 484 38,000  Level Los Angeles Center
Sat 01:14:51 AM 34.1375 -119.2214 309° West 420 483 38,000  Level Los Angeles Center
Sat 01:15:52 AM 34.2108 -119.3308 309° West 419 482 38,000  Level Los Angeles Center
Sat 01:16:53 AM 34.2850 -119.4397 310° West 420 483 38,000  Level Los Angeles Center
Sat 01:17:54 AM 34.3583 -119.5489 309° West 419 482 38,000  Level Los Angeles Center
Sat 01:18:55 AM 34.4325 -119.6592 309° West 422 486 38,000  Level Los Angeles Center
Sat 01:19:57 AM 34.5072 -119.7669 310° West 419 482 38,000  Level Los Angeles Center
Sat 01:20:58 AM 34.6158 -119.8614 324° Northwest 428 493 38,000  Level Los Angeles Center
Sat 01:21:59 AM 34.7133 -119.9408 326° Northwest 424 488 38,000  Level Los Angeles Center
Sat 01:23:00 AM 34.8108 -120.0194 327° Northwest 421 484 38,000  Level Los Angeles Center
Sat 01:24:02 AM 34.9058 -120.1000 325° Northwest 417 480 38,000  Level Los Angeles Center
Sat 01:25:03 AM 34.9978 -120.1756 326° Northwest 419 482 38,000  Level Los Angeles Center
Sat 01:26:04 AM 35.0928 -120.2544 326° Northwest 418 481 38,000  Level Los Angeles Center
Sat 01:27:05 AM 35.1889 -120.3344 326° Northwest 419 482 38,000  Level Los Angeles Center
Sat 01:28:06 AM 35.3047 -120.4317 326° Northwest 423 487 38,000  Level Los Angeles Center
Sat 01:29:07 AM 35.4014 -120.5161 325° Northwest 434 499 38,000  Level Los Angeles Center
Sat 01:30:09 AM 35.4997 -120.5994 325° Northwest 432 497 38,000  Level Los Angeles Center
Sat 01:31:10 AM 35.5975 -120.6797 326° Northwest 427 491 38,000  Level Los Angeles Center
Sat 01:32:11 AM 35.6906 -120.7600 325° Northwest 425 489 38,000 -197 Level Los Angeles Center
Sat 01:33:12 AM 35.7878 -120.8422 326° Northwest 424 488 37,600 -1,525 Descending Los Angeles Center
Sat 01:34:13 AM 35.8822 -120.9225 325° Northwest 415 478 34,900 -3,000 Descending Los Angeles Center
Sat 01:35:14 AM 35.9956 -121.0197 325° Northwest 415 478 31,500 -2,633 Descending Los Angeles Center
Sat 01:36:32 AM 36.1072 -121.1172 325° Northwest 408 470 28,800 -2,158 Descending Oakland Center
Sat 01:37:33 AM 36.1975 -121.1969 325° Northwest 400 460 26,500 -2,262 Descending Oakland Center
Sat 01:38:34 AM 36.2894 -121.2739 326° Northwest 398 458 24,200 -2,529 Descending Oakland Center
Sat 01:39:34 AM 36.3786 -121.3519 325° Northwest 392 451 21,400 -2,876 Descending Oakland Center
Sat 01:40:35 AM 36.4750 -121.4161 332° Northwest 393 452 18,400 -2,607 Descending Oakland Center
Sat 01:41:36 AM 36.5811 -121.4578 343° North 394 453 16,100 -2,231 Descending Oakland Center
Sat 01:42:36 AM 36.6808 -121.4981 342° North 381 438 13,900 -2,281 Descending Oakland Center
Sat 01:43:37 AM 36.7731 -121.5408 340° North 361 415 11,500 -1,918 Descending Oakland Center
Sat 01:44:38 AM 36.8619 -121.5833 339° North 350 403 10,000 -1,339 Descending Oakland Center
Sat 01:45:38 AM 36.9547 -121.6231 341° North 311 358 8,800 -1,240 Descending Oakland Center
Sat 01:46:39 AM 37.0272 -121.6556 340° North 290 334 7,500 -1,033 Descending Oakland Center
Sat 01:47:40 AM 37.0939 -121.6842 341° North 272 313 6,700 -1,032 Descending Oakland Center
Sat 01:48:12 AM 37.1333 -121.7000 342° North 236 272 5,900 -1,043 Descending Northern Cal TRACON
Sat 01:49:12 AM 37.1833 -121.7333 332° Northwest 210 242 5,100 -1,053 Descending Northern Cal TRACON
Sat 01:50:06 AM 37.2167 -121.7667 321° Northwest 192 221 3,900 -1,267 Descending Northern Cal TRACON
Sat 01:50:42 AM 37.2378 -121.7972 311° West 197 227 3,200 -1,175 Descending Oakland Center
Sat 01:51:43 AM 37.2775 -121.8394 320° Northwest 190 219 2,000 -992 Descending Oakland Center
Sat 01:52:43 AM 37.3122 -121.8761 320° Northwest 178 205 1,200 -793 Descending Oakland Center
Sat 01:53:44 AM 37.3411 -121.9044 322° Northwest 152 175 400 -787 Descending Oakland Center
Sat 01:55:00 AM 37.3500 -121.9167 North  Level FlightAware Approximate
Sat 02:02:00 AM 37.3627 -121.9291 North  Level Estimated
Sat 02:03:00 AM 37.3627 -121.9291 North  Level Estimated

Login

Don't have an account? Register now (free) for customized features, flight alerts, and more!